Terminal Aerodrome Forecast
Issued by NWS

Home | Current Version | Previous Version | Text Only | Print | Product List | Glossary On
Versions: 1 2 3 4 5 6 7 8 9 10 11 12 13 14 15 16 17 18
000
FTUS41 KILN 301700
TAFLUK
TAF
KLUK 301737Z 3018/0118 34009KT P6SM SCT015 BKN070
     FM302100 35004KT P6SM SCT070
     FM010400 00000KT 3SM BR SKC
     FM010800 00000KT 1SM BR VV001
     FM011300 VRB03KT P6SM SCT250=

USA.gov is the U.S. government's official web portal to all federal, state and local government web resources and services.